Time;durP1;ratioP1;P1;durP2;ratioP2;P2;SDS_P1;SDS_P2;PMS_P1;PMS_P2;Temp;Humidity;BMP_temperature;BMP_pressure;BME280_temperature;BME280_humidity;BME280_pressure;Samples;Min_cycle;Max_cycle;Signal;HPM_P1;HPM_P2
2023/05/18 00:02:25;;;;;;;;;;;;;;;21.20;50.31;101998.25;2260390;77;52510;-72
2023/05/18 00:05:32;;;;;;;;;;;;;;;21.18;50.28;101995.39;2285782;76;50347;-72
2023/05/18 00:08:30;;;;;;;;;;;;;;;21.17;50.32;101999.07;2285523;76;22492;-72
2023/05/18 00:11:33;;;;;;;;;;;;;;;21.17;50.33;101999.94;2286345;76;50310;-72
2023/05/18 00:14:35;;;;;;;;;;;;;;;21.18;50.39;102000.27;2261089;76;52228;-71
2023/05/18 00:17:36;;;;;;;;;;;;;;;21.19;50.36;102006.48;2308416;75;51511;-71
2023/05/18 00:20:38;;;;;;;;;;;;;;;21.19;50.30;102006.48;2351148;75;51536;-71
2023/05/18 00:23:41;;;;;;;;;;;;;;;21.19;50.36;102010.01;2351210;74;51481;-72
2023/05/18 00:26:43;;;;;;;;;;;;;;;21.19;50.39;102007.31;2352779;75;50313;-71
2023/05/18 00:29:44;;;;;;;;;;;;;;;21.18;50.37;102006.16;2353089;74;51525;-71
2023/05/18 00:32:46;;;;;;;;;;;;;;;21.19;50.27;102000.59;2353146;74;51675;-71
2023/05/18 00:35:48;;;;;;;;;;;;;;;21.19;50.31;102010.52;2351101;75;51421;-71
2023/05/18 00:38:49;;;;;;;;;;;;;;;21.18;50.32;102008.84;2378217;74;52393;-71
2023/05/18 00:41:51;;;;;;;;;;;;;;;21.19;50.29;102005.97;2352896;74;51453;-71
2023/05/18 00:44:52;;;;;;;;;;;;;;;21.18;50.33;102010.20;2347908;75;51462;-72
2023/05/18 00:47:54;;;;;;;;;;;;;;;21.19;50.32;102015.91;2308907;74;50230;-71
2023/05/18 00:50:56;;;;;;;;;;;;;;;21.17;50.40;102015.22;2296547;76;52373;-72
2023/05/18 00:53:57;;;;;;;;;;;;;;;21.17;50.36;102009.84;2296897;76;51445;-72
2023/05/18 00:57:00;;;;;;;;;;;;;;;21.17;50.35;102021.47;2320831;76;50293;-72
2023/05/18 01:00:03;;;;;;;;;;;;;;;21.17;50.28;102025.51;2320336;76;51513;-72
2023/05/18 01:03:08;;;;;;;;;;;;;;;21.18;50.35;102022.31;2296782;76;52734;-72
2023/05/18 01:06:09;;;;;;;;;;;;;;;21.18;50.33;102029.87;2319961;76;22332;-72
2023/05/18 01:09:10;;;;;;;;;;;;;;;21.17;50.35;102034.06;2320771;76;52198;-71
2023/05/18 01:12:14;;;;;;;;;;;;;;;21.15;50.39;102037.45;2320344;76;51528;-72
2023/05/18 01:15:17;;;;;;;;;;;;;;;21.14;50.35;102029.86;2294461;76;51770;-71
2023/05/18 01:18:33;;;;;;;;;;;;;;;21.14;50.39;102036.58;2319176;75;50675;-71
2023/05/18 01:21:42;;;;;;;;;;;;;;;21.15;50.46;102033.41;2346138;74;51390;-71
2023/05/18 01:24:42;;;;;;;;;;;;;;;21.13;50.49;102040.30;2297665;76;22447;-71
2023/05/18 01:27:45;;;;;;;;;;;;;;;21.13;50.48;102045.67;2260158;75;51190;-72
2023/05/18 01:30:46;;;;;;;;;;;;;;;21.14;50.52;102047.86;2286348;76;51579;-71
2023/05/18 01:33:48;;;;;;;;;;;;;;;21.14;50.44;102042.48;2286066;76;51538;-71
2023/05/18 01:36:50;;;;;;;;;;;;;;;21.13;50.50;102043.50;2286157;76;50607;-71
2023/05/18 01:39:51;;;;;;;;;;;;;;;21.13;50.51;102040.81;2285830;76;51548;-71
2023/05/18 01:42:54;;;;;;;;;;;;;;;21.13;50.48;102047.53;2286522;76;51581;-71
2023/05/18 01:45:56;;;;;;;;;;;;;;;21.10;50.46;102041.98;2286349;76;51451;-72
2023/05/18 01:48:59;;;;;;;;;;;;;;;21.11;50.44;102045.00;2308751;75;51538;-71
2023/05/18 01:52:02;;;;;;;;;;;;;;;21.11;50.36;102050.37;2369426;74;51300;-72
2023/05/18 01:55:04;;;;;;;;;;;;;;;21.10;50.51;102046.85;2351598;74;51569;-71
2023/05/18 01:58:05;;;;;;;;;;;;;;;21.12;50.43;102052.56;2352180;74;51403;-71
2023/05/18 02:01:07;;;;;;;;;;;;;;;21.10;50.43;102063.00;2351834;74;50282;-71
2023/05/18 02:04:09;;;;;;;;;;;;;;;21.10;50.45;102059.47;2378086;74;50135;-72
2023/05/18 02:07:10;;;;;;;;;;;;;;;21.13;50.50;102056.95;2352700;74;51432;-71
2023/05/18 02:10:12;;;;;;;;;;;;;;;21.10;50.57;102056.27;2351148;75;50450;-71
2023/05/18 02:13:13;;;;;;;;;;;;;;;21.10;50.51;102052.75;2353541;74;51421;-72
2023/05/18 02:16:15;;;;;;;;;;;;;;;21.10;50.56;102055.44;2324788;75;51233;-71
2023/05/18 02:19:17;;;;;;;;;;;;;;;21.08;50.47;102052.90;2351295;75;51571;-72
2023/05/18 02:22:19;;;;;;;;;;;;;;;21.09;50.46;102054.59;2340282;75;51519;-71
2023/05/18 02:25:21;;;;;;;;;;;;;;;21.09;50.50;102051.05;2349687;75;50618;-71
2023/05/18 02:28:23;;;;;;;;;;;;;;;21.09;50.39;102057.30;2325268;75;49498;-72
2023/05/18 02:31:28;;;;;;;;;;;;;;;21.09;50.62;102056.42;2350354;74;52258;-71
2023/05/18 02:34:31;;;;;;;;;;;;;;;21.09;50.62;102055.08;2351107;73;22390;-71
2023/05/18 02:37:33;;;;;;;;;;;;;;;21.08;50.64;102056.09;2349911;74;22494;-71
2023/05/18 02:40:34;;;;;;;;;;;;;;;21.07;50.69;102058.47;2350546;74;22331;-70
2023/05/18 02:43:35;;;;;;;;;;;;;;;21.07;50.66;102058.47;2352705;75;50620;-70
2023/05/18 02:46:37;;;;;;;;;;;;;;;21.05;50.61;102055.92;2352228;75;51467;-71
2023/05/18 02:49:39;;;;;;;;;;;;;;;21.06;50.71;102063.48;2350437;74;50606;-71
2023/05/18 02:52:40;;;;;;;;;;;;;;;21.06;50.72;102064.33;2350745;75;51508;-70
2023/05/18 02:55:42;;;;;;;;;;;;;;;21.05;50.72;102065.34;2359341;75;51517;-71
2023/05/18 02:58:44;;;;;;;;;;;;;;;21.06;50.73;102064.84;2358527;74;50446;-71
2023/05/18 03:01:45;;;;;;;;;;;;;;;21.04;50.68;102066.84;2359048;73;50424;-71
2023/05/18 03:04:52;;;;;;;;;;;;;;;21.05;50.61;102072.07;2324239;75;51195;-71
2023/05/18 03:07:51;;;;;;;;;;;;;;;21.05;50.60;102069.38;2359121;74;22415;-71
2023/05/18 03:10:52;;;;;;;;;;;;;;;21.04;50.56;102067.71;2358351;75;50273;-71
2023/05/18 03:13:54;;;;;;;;;;;;;;;21.05;50.61;102073.93;2359409;74;50197;-71
2023/05/18 03:16:56;;;;;;;;;;;;;;;21.04;50.65;102070.41;2324634;75;51250;-72
2023/05/18 03:19:58;;;;;;;;;;;;;;;21.04;50.61;102073.09;2350187;74;51577;-71
2023/05/18 03:22:59;;;;;;;;;;;;;;;21.05;50.66;102075.27;2347352;75;51401;-71
2023/05/18 03:26:02;;;;;;;;;;;;;;;21.05;50.66;102073.93;2350878;74;50206;-71
2023/05/18 03:29:04;;;;;;;;;;;;;;;21.03;50.70;102066.01;2378002;74;52568;-71
2023/05/18 03:32:06;;;;;;;;;;;;;;;21.03;50.71;102070.55;2351072;74;50358;-72
2023/05/18 03:35:08;;;;;;;;;;;;;;;21.02;50.54;102080.48;2351106;74;50358;-73
2023/05/18 03:38:09;;;;;;;;;;;;;;;21.03;50.64;102071.39;2352612;75;51527;-72
2023/05/18 03:41:11;;;;;;;;;;;;;;;21.04;50.63;102074.92;2378352;74;52357;-73
2023/05/18 03:44:13;;;;;;;;;;;;;;;21.04;50.47;102078.95;2353150;75;50690;-72
2023/05/18 03:47:14;;;;;;;;;;;;;;;21.03;50.55;102083.50;2346094;75;51428;-72
2023/05/18 03:50:16;;;;;;;;;;;;;;;21.03;50.56;102081.31;2353261;74;51416;-74
2023/05/18 03:53:20;;;;;;;;;;;;;;;21.02;50.39;102084.52;2329318;75;52571;-72
2023/05/18 03:56:22;;;;;;;;;;;;;;;21.04;50.44;102091.93;2357559;75;23205;-72
2023/05/18 03:59:23;;;;;;;;;;;;;;;21.04;50.52;102089.72;2358689;74;51742;-71
2023/05/18 04:02:25;;;;;;;;;;;;;;;21.03;50.50;102090.23;2355469;75;51562;-72
2023/05/18 04:05:27;;;;;;;;;;;;;;;21.03;50.37;102092.92;2355159;75;51619;-72
2023/05/18 04:08:29;;;;;;;;;;;;;;;21.02;50.46;102099.32;2357923;75;49972;-72
2023/05/18 04:11:30;;;;;;;;;;;;;;;21.02;50.52;102093.94;2357925;75;50667;-72
2023/05/18 04:14:32;;;;;;;;;;;;;;;21.02;50.57;102102.01;2354510;75;51380;-71
2023/05/18 04:17:34;;;;;;;;;;;;;;;21.03;50.61;102112.27;2333269;75;52575;-71
2023/05/18 04:20:36;;;;;;;;;;;;;;;21.03;50.51;102111.76;2357317;75;50383;-71
2023/05/18 04:23:39;;;;;;;;;;;;;;;21.02;50.56;102115.47;2357289;74;51716;-71
2023/05/18 04:26:41;;;;;;;;;;;;;;;21.05;50.58;102115.64;2355275;75;50706;-72
2023/05/18 04:29:43;;;;;;;;;;;;;;;21.02;50.48;102123.54;2377913;74;51330;-72
2023/05/18 04:32:44;;;;;;;;;;;;;;;21.03;50.48;102124.38;2354906;75;50123;-72
2023/05/18 04:35:46;;;;;;;;;;;;;;;21.04;50.52;102117.97;2350617;75;50253;-71
2023/05/18 04:38:49;;;;;;;;;;;;;;;21.03;50.71;102121.17;2355047;75;50178;-72
2023/05/18 04:41:57;;;;;;;;;;;;;;;21.01;50.75;102119.14;2351201;75;25639;-74
2023/05/18 04:44:54;;;;;;;;;;;;;;;21.02;48.49;102125.39;2354750;75;22708;-72
2023/05/18 04:47:57;;;;;;;;;;;;;;;20.95;47.54;102121.66;2355301;74;51566;-70
2023/05/18 04:50:58;;;;;;;;;;;;;;;20.97;48.08;102119.16;2362143;74;51544;-70
2023/05/18 04:54:02;;;;;;;;;;;;;;;20.99;48.17;102120.31;2389896;74;52491;-70
2023/05/18 04:57:03;;;;;;;;;;;;;;;21.02;48.05;102128.92;2356447;75;51591;-70
2023/05/18 05:00:08;;;;;;;;;;;;;;;21.03;47.93;102133.28;2356807;74;51573;-70
2023/05/18 05:03:09;;;;;;;;;;;;;;;21.08;47.94;102126.08;2362290;75;22481;-69
2023/05/18 05:06:11;;;;;;;;;;;;;;;21.19;47.88;102132.48;2329708;75;51229;-75
2023/05/18 05:09:13;;;;;;;;;;;;;;;21.24;47.86;102138.22;2356602;74;51592;-75
2023/05/18 05:12:15;;;;;;;;;;;;;;;21.26;48.04;102140.25;2362049;75;51496;-75
2023/05/18 05:15:17;;;;;;;;;;;;;;;21.30;48.08;102128.67;2360619;74;50742;-74
2023/05/18 05:18:18;;;;;;;;;;;;;;;21.32;48.16;102127.97;2341472;75;49810;-74
2023/05/18 05:21:20;;;;;;;;;;;;;;;21.37;48.41;102136.40;2353707;75;51437;-74
2023/05/18 05:24:22;;;;;;;;;;;;;;;21.43;48.16;102138.98;2356412;75;50227;-75
2023/05/18 05:27:25;;;;;;;;;;;;;;;21.49;48.16;102139.16;2354146;75;50119;-74
2023/05/18 05:30:26;;;;;;;;;;;;;;;21.55;48.13;102137.64;2357781;73;51178;-74
2023/05/18 05:33:28;;;;;;;;;;;;;;;21.63;48.07;102139.50;2387586;74;50554;-74
2023/05/18 05:36:30;;;;;;;;;;;;;;;21.70;47.98;102142.70;2371705;75;51428;-73
2023/05/18 05:39:32;;;;;;;;;;;;;;;21.75;47.93;102147.08;2367153;75;50331;-75
2023/05/18 05:42:33;;;;;;;;;;;;;;;21.81;47.88;102150.12;2368016;75;51422;-72
2023/05/18 05:45:35;;;;;;;;;;;;;;;21.86;47.80;102149.98;2363202;74;50788;-73
2023/05/18 05:48:36;;;;;;;;;;;;;;;21.92;47.74;102162.77;2354099;75;51497;-73
2023/05/18 05:51:38;;;;;;;;;;;;;;;21.97;47.59;102158.22;2377730;74;52327;-73
2023/05/18 05:54:40;;;;;;;;;;;;;;;22.01;47.45;102161.41;2377531;74;52318;-73
2023/05/18 05:57:42;;;;;;;;;;;;;;;22.07;47.32;102163.45;2354466;75;51340;-73
2023/05/18 06:00:44;;;;;;;;;;;;;;;22.11;47.20;102160.22;2350553;75;51520;-73
2023/05/18 06:03:47;;;;;;;;;;;;;;;22.19;47.10;102159.41;2375422;73;50308;-73
2023/05/18 06:06:49;;;;;;;;;;;;;;;22.24;47.21;102159.73;2371929;74;52447;-73
2023/05/18 06:09:51;;;;;;;;;;;;;;;22.29;47.14;102151.97;2406029;73;51420;-73
2023/05/18 06:12:52;;;;;;;;;;;;;;;22.33;47.07;102158.72;2401517;74;51518;-72
2023/05/18 06:15:54;;;;;;;;;;;;;;;22.38;47.00;102156.34;2382378;73;51433;-72
2023/05/18 06:18:55;;;;;;;;;;;;;;;22.41;46.92;102169.16;2327236;75;52322;-72
2023/05/18 06:21:57;;;;;;;;;;;;;;;22.45;46.80;102160.53;2350418;75;51435;-72
2023/05/18 06:24:58;;;;;;;;;;;;;;;22.48;46.77;102160.69;2350544;75;51502;-72
2023/05/18 06:28:00;;;;;;;;;;;;;;;22.49;46.72;102157.84;2350234;75;50269;-76
2023/05/18 06:31:02;;;;;;;;;;;;;;;22.52;46.71;102165.58;2328250;75;50941;-75
2023/05/18 06:34:03;;;;;;;;;;;;;;;22.56;46.64;102163.40;2350493;75;50645;-76
2023/05/18 06:37:05;;;;;;;;;;;;;;;22.56;46.60;102164.74;2352343;75;50596;-75
2023/05/18 06:40:07;;;;;;;;;;;;;;;22.58;46.55;102169.44;2366991;74;50255;-76
2023/05/18 06:43:09;;;;;;;;;;;;;;;22.61;46.92;102166.42;2369088;75;52414;-76
2023/05/18 06:46:12;;;;;;;;;;;;;;;22.60;46.79;102172.30;2328072;75;53218;-75
2023/05/18 06:49:14;;;;;;;;;;;;;;;22.65;46.80;102165.55;2358967;75;51488;-75
2023/05/18 06:52:16;;;;;;;;;;;;;;;22.64;46.88;102162.02;2359247;74;50688;-75
2023/05/18 06:55:17;;;;;;;;;;;;;;;22.63;46.83;102167.06;2334165;75;52542;-75
2023/05/18 06:58:19;;;;;;;;;;;;;;;22.64;46.94;102167.93;2355338;74;51605;-74
2023/05/18 07:01:21;;;;;;;;;;;;;;;22.62;47.12;102169.44;2356393;74;50318;-75
2023/05/18 07:04:23;;;;;;;;;;;;;;;22.61;47.37;102169.11;2358109;75;50724;-76
2023/05/18 07:07:24;;;;;;;;;;;;;;;22.62;47.42;102159.99;2360620;75;51652;-75
2023/05/18 07:10:27;;;;;;;;;;;;;;;22.61;47.54;102167.25;2336141;75;50727;-74
2023/05/18 07:13:29;;;;;;;;;;;;;;;22.61;47.74;102171.81;2336090;74;51573;-75
2023/05/18 07:16:31;;;;;;;;;;;;;;;22.63;47.71;102163.53;2366844;74;51478;-74
2023/05/18 07:19:34;;;;;;;;;;;;;;;22.64;47.22;102163.37;2341519;74;52340;-74
2023/05/18 07:22:35;;;;;;;;;;;;;;;22.64;46.10;102163.37;2357066;75;51554;-76
2023/05/18 07:25:37;;;;;;;;;;;;;;;22.58;45.04;102164.04;2354769;75;49979;-75
2023/05/18 07:28:38;;;;;;;;;;;;;;;22.49;42.82;102162.40;2355801;74;50115;-74
2023/05/18 07:31:40;;;;;;;;;;;;;;;22.44;42.20;102157.52;2329112;75;51693;-75
2023/05/18 07:34:42;;;;;;;;;;;;;;;22.43;41.63;102157.67;2351091;75;50316;-75
2023/05/18 07:37:43;;;;;;;;;;;;;;;22.41;41.71;102151.63;2360631;74;51887;-75
2023/05/18 07:40:45;;;;;;;;;;;;;;;22.37;41.99;102154.64;2360593;74;49681;-75
2023/05/18 07:43:47;;;;;;;;;;;;;;;22.37;42.36;102160.04;2391566;73;51047;-75
2023/05/18 07:46:48;;;;;;;;;;;;;;;22.36;42.70;102157.02;2360967;74;50385;-76
2023/05/18 07:49:50;;;;;;;;;;;;;;;22.35;42.92;102150.44;2369726;74;50604;-76
2023/05/18 07:52:52;;;;;;;;;;;;;;;22.35;43.13;102156.70;2369771;75;50300;-76
2023/05/18 07:55:53;;;;;;;;;;;;;;;22.34;42.81;102155.00;2334617;75;51223;-75
2023/05/18 07:58:55;;;;;;;;;;;;;;;22.33;42.90;102150.62;2369663;74;50257;-76
2023/05/18 08:01:58;;;;;;;;;;;;;;;22.29;43.02;102158.71;2361885;75;49884;-76
2023/05/18 08:05:00;;;;;;;;;;;;;;;22.27;43.12;102159.89;2361175;74;51684;-76
2023/05/18 08:08:02;;;;;;;;;;;;;;;22.23;43.33;102159.41;2333330;74;50198;-76
2023/05/18 08:11:04;;;;;;;;;;;;;;;22.18;43.41;102165.78;2361698;75;50566;-75
2023/05/18 08:14:06;;;;;;;;;;;;;;;22.15;43.52;102172.87;2361511;74;50018;-77
2023/05/18 08:17:07;;;;;;;;;;;;;;;22.10;43.56;102168.49;2369548;74;50524;-75
2023/05/18 08:20:09;;;;;;;;;;;;;;;22.07;43.55;102176.92;2392389;73;51073;-75
2023/05/18 08:23:11;;;;;;;;;;;;;;;22.06;43.54;102176.05;2369687;75;50110;-75
2023/05/18 08:26:13;;;;;;;;;;;;;;;22.03;43.72;102180.95;2369531;74;50259;-76
2023/05/18 08:29:14;;;;;;;;;;;;;;;22.01;43.77;102176.23;2361575;74;50218;-75
2023/05/18 08:32:16;;;;;;;;;;;;;;;22.02;43.69;102175.24;2333305;74;52245;-74
2023/05/18 08:35:18;;;;;;;;;;;;;;;22.03;43.89;102179.09;2358807;74;51522;-76
2023/05/18 08:38:19;;;;;;;;;;;;;;;22.04;43.87;102178.11;2361405;75;50241;-75
2023/05/18 08:41:24;;;;;;;;;;;;;;;22.05;43.97;102178.43;2356983;74;51502;-74
2023/05/18 08:44:28;;;;;;;;;;;;;;;22.06;44.09;102175.22;2329997;75;51842;-75
2023/05/18 08:47:29;;;;;;;;;;;;;;;22.08;44.16;102163.77;2362117;74;50704;-76
2023/05/18 08:50:31;;;;;;;;;;;;;;;22.07;44.22;102163.45;2362432;75;50179;-75
2023/05/18 08:53:33;;;;;;;;;;;;;;;22.08;44.17;102159.73;2356185;75;51539;-75
2023/05/18 08:56:34;;;;;;;;;;;;;;;22.05;44.17;102162.77;2323212;75;50962;-75
2023/05/18 08:59:38;;;;;;;;;;;;;;;22.00;44.22;102169.17;2354896;75;50684;-75
2023/05/18 09:02:39;;;;;;;;;;;;;;;21.99;44.25;102171.52;2355111;75;51554;-75
2023/05/18 09:05:41;;;;;;;;;;;;;;;21.98;44.32;102172.53;2354036;75;51352;-74
2023/05/18 09:08:43;;;;;;;;;;;;;;;21.92;44.44;102178.94;2354978;74;50415;-75
2023/05/18 09:11:44;;;;;;;;;;;;;;;21.89;44.49;102172.54;2343764;75;51507;-74
2023/05/18 09:14:46;;;;;;;;;;;;;;;21.88;44.55;102173.53;2347528;75;51399;-74
2023/05/18 09:17:47;;;;;;;;;;;;;;;21.88;44.47;102176.73;2347620;75;50197;-75
2023/05/18 09:20:49;;;;;;;;;;;;;;;21.83;44.61;102173.19;2319349;75;51273;-75
2023/05/18 09:23:51;;;;;;;;;;;;;;;21.83;44.60;102179.92;2343487;75;50243;-75
2023/05/18 09:26:52;;;;;;;;;;;;;;;21.80;44.65;102173.53;2348892;75;51547;-74
2023/05/18 09:29:55;;;;;;;;;;;;;;;21.78;44.71;102165.28;2343560;75;51440;-74
2023/05/18 09:32:57;;;;;;;;;;;;;;;21.77;44.75;102157.70;2377245;74;52581;-74
2023/05/18 09:35:58;;;;;;;;;;;;;;;21.75;44.89;102159.72;2353289;75;50081;-74
2023/05/18 09:39:00;;;;;;;;;;;;;;;21.74;44.85;102162.09;2354801;75;50243;-75
2023/05/18 09:42:05;;;;;;;;;;;;;;;21.75;45.01;102159.72;2355114;75;51509;-74
2023/05/18 09:45:17;;;;;;;;;;;;;;;21.77;44.93;102152.31;2359268;74;52386;-74
2023/05/18 09:48:19;;;;;;;;;;;;;;;21.78;44.89;102151.30;2359162;74;51544;-74
2023/05/18 09:51:23;;;;;;;;;;;;;;;21.75;44.94;102139.52;2359380;75;50640;-74
2023/05/18 09:54:24;;;;;;;;;;;;;;;21.76;45.02;102143.91;2361717;75;22697;-75
2023/05/18 09:57:25;;;;;;;;;;;;;;;21.78;45.01;102149.11;2320886;75;51192;-75
2023/05/18 10:00:27;;;;;;;;;;;;;;;21.80;45.00;102151.98;2351104;75;50329;-74
2023/05/18 10:03:35;;;;;;;;;;;;;;;21.79;44.99;102146.27;2354027;75;51536;-74
2023/05/18 10:06:37;;;;;;;;;;;;;;;21.79;45.02;102145.42;2346387;75;24738;-74
2023/05/18 10:09:42;;;;;;;;;;;;;;;21.73;45.07;102144.22;2353029;74;50251;-74
2023/05/18 10:12:43;;;;;;;;;;;;;;;21.72;45.13;102139.85;2352635;74;51532;-75
2023/05/18 10:15:47;;;;;;;;;;;;;;;21.72;45.17;102141.20;2350909;74;50206;-75
2023/05/18 10:18:48;;;;;;;;;;;;;;;21.73;45.16;102142.39;2349041;75;51668;-75
2023/05/18 10:21:50;;;;;;;;;;;;;;;21.72;45.13;102144.73;2378644;74;52396;-75
2023/05/18 10:24:52;;;;;;;;;;;;;;;21.73;45.17;102136.14;2351221;75;52289;-75
2023/05/18 10:28:04;;;;;;;;;;;;;;;21.73;45.17;102132.09;2350882;75;50318;-75
2023/05/18 10:31:05;;;;;;;;;;;;;;;21.70;45.25;102129.74;2351032;74;51502;-75
2023/05/18 10:34:07;;;;;;;;;;;;;;;21.68;45.31;102131.76;2382049;73;51763;-76
2023/05/18 10:37:09;;;;;;;;;;;;;;;21.68;45.29;102127.23;2351127;74;51592;-76
2023/05/18 10:40:11;;;;;;;;;;;;;;;21.67;45.18;102108.53;2351218;75;52395;-75
2023/05/18 10:43:12;;;;;;;;;;;;;;;21.65;45.30;102114.08;2352970;75;50490;-76
2023/05/18 10:46:14;;;;;;;;;;;;;;;21.64;45.31;102119.66;2326215;75;51717;-75
2023/05/18 10:49:22;;;;;;;;;;;;;;;21.63;45.34;102117.95;2351215;74;50176;-75
2023/05/18 10:52:25;;;;;;;;;;;;;;;21.63;45.45;102123.34;2351603;74;22348;-75
2023/05/18 10:55:28;;;;;;;;;;;;;;;21.65;45.80;102121.32;2351931;75;23481;-75
2023/05/18 10:58:30;;;;;;;;;;;;;;;21.68;45.55;102116.94;2351505;74;24420;-74
2023/05/18 11:01:31;;;;;;;;;;;;;;;21.67;45.71;102108.53;2326341;75;51630;-74
2023/05/18 11:04:33;;;;;;;;;;;;;;;21.67;45.62;102107.19;2355312;74;51329;-76
2023/05/18 11:07:35;;;;;;;;;;;;;;;21.66;45.71;102102.31;2361729;75;52318;-75
2023/05/18 11:10:41;;;;;;;;;;;;;;;21.65;45.62;102113.24;2357108;74;50660;-75
2023/05/18 11:13:43;;;;;;;;;;;;;;;21.63;45.82;102113.42;2327104;75;52696;-75
2023/05/18 11:16:45;;;;;;;;;;;;;;;21.62;45.77;102118.97;2353631;75;50378;-76
2023/05/18 11:20:07;;;;;;;;;;;;;;;21.61;45.91;102121.34;2353887;75;50632;-75
2023/05/18 11:23:09;;;;;;;;;;;;;;;21.62;45.85;102118.97;2354901;75;51528;-76
2023/05/18 11:26:12;;;;;;;;;;;;;;;21.63;45.77;102116.59;2328038;75;51749;-75
2023/05/18 11:29:24;;;;;;;;;;;;;;;21.64;45.77;102117.80;2352725;74;50778;-74
2023/05/18 11:32:28;;;;;;;;;;;;;;;21.64;45.76;102109.71;2355446;74;50498;-74
2023/05/18 11:35:30;;;;;;;;;;;;;;;21.64;45.70;102094.06;2354847;74;50050;-75
2023/05/18 11:38:37;;;;;;;;;;;;;;;21.64;45.79;102085.47;2328274;74;51782;-75
2023/05/18 11:41:41;;;;;;;;;;;;;;;21.63;45.62;102087.84;2343199;75;50424;-75
2023/05/18 11:44:42;;;;;;;;;;;;;;;21.64;45.57;102090.86;2352436;75;22132;-75
2023/05/18 11:47:44;;;;;;;;;;;;;;;21.60;45.83;102092.19;2352957;74;50277;-74
2023/05/18 11:50:45;;;;;;;;;;;;;;;21.57;45.71;102088.49;2382191;74;50869;-76
2023/05/18 11:53:47;;;;;;;;;;;;;;;21.58;45.88;102104.14;2351553;74;50249;-75
2023/05/18 11:56:50;;;;;;;;;;;;;;;21.60;45.89;102098.92;2351180;74;51684;-75
2023/05/18 11:59:55;;;;;;;;;;;;;;;21.61;45.72;102087.16;2351537;75;50267;-75
2023/05/18 12:02:57;;;;;;;;;;;;;;;21.60;45.72;102092.70;2378691;74;52501;-76
2023/05/18 12:05:59;;;;;;;;;;;;;;;21.57;45.65;102090.34;2350653;75;50645;-76
2023/05/18 12:09:01;;;;;;;;;;;;;;;21.56;45.72;102094.06;2351019;74;51339;-75
2023/05/18 12:12:02;;;;;;;;;;;;;;;21.57;45.81;102089.84;2351340;75;51509;-75
2023/05/18 12:15:05;;;;;;;;;;;;;;;21.56;45.58;102086.82;2324964;75;49569;-74
2023/05/18 12:18:06;;;;;;;;;;;;;;;21.57;45.84;102092.53;2352876;74;50787;-76
2023/05/18 12:21:08;;;;;;;;;;;;;;;21.57;45.88;102081.75;2351096;74;52320;-75
2023/05/18 12:24:10;;;;;;;;;;;;;;;21.59;46.02;102081.09;2353135;75;51418;-75
2023/05/18 12:27:11;;;;;;;;;;;;;;;21.58;45.86;102085.28;2378466;74;51892;-75
2023/05/18 12:30:17;;;;;;;;;;;;;;;21.59;45.85;102078.91;2351468;75;50348;-74
2023/05/18 12:33:18;;;;;;;;;;;;;;;21.60;45.92;102077.89;2351700;75;51638;-75
2023/05/18 12:36:20;;;;;;;;;;;;;;;21.61;45.86;102072.85;2353244;75;50600;-75
2023/05/18 12:39:21;;;;;;;;;;;;;;;21.60;45.77;102069.80;2327233;75;52593;-75
2023/05/18 12:42:23;;;;;;;;;;;;;;;21.59;45.83;102077.05;2353112;74;50644;-75
2023/05/18 12:45:25;;;;;;;;;;;;;;;21.57;45.82;102076.88;2351307;75;51468;-75
2023/05/18 12:48:29;;;;;;;;;;;;;;;21.56;45.77;102078.73;2355828;75;50563;-75
2023/05/18 12:51:34;;;;;;;;;;;;;;;21.55;45.76;102065.42;2350275;75;22624;-76
2023/05/18 12:54:35;;;;;;;;;;;;;;;21.55;45.77;102075.69;2354018;75;51535;-75
2023/05/18 12:57:40;;;;;;;;;;;;;;;21.55;45.71;102073.51;2353403;75;51421;-75
2023/05/18 13:00:42;;;;;;;;;;;;;;;21.56;45.79;102063.09;2354334;74;22272;-75
2023/05/18 13:03:43;;;;;;;;;;;;;;;21.56;45.79;102061.74;2327502;75;51992;-75
2023/05/18 13:06:45;;;;;;;;;;;;;;;21.52;45.82;102060.70;2355474;75;51492;-75
2023/05/18 13:09:48;;;;;;;;;;;;;;;21.51;45.94;102059.04;2355577;75;50637;-75
2023/05/18 13:12:50;;;;;;;;;;;;;;;21.49;45.81;102062.39;2353598;75;51559;-75
2023/05/18 13:15:52;;;;;;;;;;;;;;;21.50;45.86;102057.36;2355918;74;50439;-75
2023/05/18 13:18:57;;;;;;;;;;;;;;;21.53;45.86;102056.19;2355699;75;50273;-75
2023/05/18 13:21:59;;;;;;;;;;;;;;;21.55;45.85;102051.96;2362174;74;50673;-75
2023/05/18 13:25:01;;;;;;;;;;;;;;;21.55;45.79;102051.45;2362175;75;50332;-74
2023/05/18 13:28:02;;;;;;;;;;;;;;;21.57;45.83;102045.91;2390046;73;49562;-74
2023/05/18 13:31:04;;;;;;;;;;;;;;;21.56;45.88;102044.23;2357197;74;50277;-74
2023/05/18 13:34:06;;;;;;;;;;;;;;;21.58;45.83;102039.50;2357566;74;51418;-74
2023/05/18 13:37:07;;;;;;;;;;;;;;;21.57;45.89;102040.01;2361892;75;50658;-75
2023/05/18 13:40:09;;;;;;;;;;;;;;;21.53;46.00;102040.86;2330305;75;51163;-74
2023/05/18 13:43:11;;;;;;;;;;;;;;;21.55;46.00;102039.84;2357276;75;50687;-74
2023/05/18 13:46:13;;;;;;;;;;;;;;;21.55;46.02;102043.37;2356813;74;51434;-74
2023/05/18 13:49:14;;;;;;;;;;;;;;;21.58;46.08;102034.98;2357143;74;50731;-74
2023/05/18 13:52:16;;;;;;;;;;;;;;;21.58;46.09;102040.84;2389990;74;51147;-75
2023/05/18 13:55:17;;;;;;;;;;;;;;;21.58;46.09;102034.11;2362272;74;50673;-76
2023/05/18 13:58:19;;;;;;;;;;;;;;;21.56;46.16;102038.34;2362102;74;50590;-75
2023/05/18 14:01:21;;;;;;;;;;;;;;;21.57;46.17;102029.75;2357084;74;50269;-76
2023/05/18 14:04:22;;;;;;;;;;;;;;;21.57;46.27;102025.70;2389897;74;51689;-76
2023/05/18 14:07:24;;;;;;;;;;;;;;;21.56;46.18;102020.83;2356587;75;51423;-75
2023/05/18 14:10:25;;;;;;;;;;;;;;;21.56;46.24;102018.14;2362219;74;51557;-76
2023/05/18 14:13:27;;;;;;;;;;;;;;;21.57;46.18;102016.28;2362206;74;51402;-75
2023/05/18 14:16:29;;;;;;;;;;;;;;;21.57;46.18;102014.94;2380017;74;52593;-76
2023/05/18 14:19:30;;;;;;;;;;;;;;;21.58;46.20;102007.17;2357661;74;50782;-75
2023/05/18 14:22:32;;;;;;;;;;;;;;;21.59;46.15;102019.65;2356733;75;50725;-75
2023/05/18 14:25:34;;;;;;;;;;;;;;;21.59;46.24;102012.92;2361849;75;50403;-75
2023/05/18 14:28:35;;;;;;;;;;;;;;;21.57;46.19;102013.59;2329525;75;49570;-75
2023/05/18 14:31:37;;;;;;;;;;;;;;;21.58;46.26;102007.17;2357071;74;50034;-75
2023/05/18 14:34:38;;;;;;;;;;;;;;;21.60;46.27;102010.55;2362089;75;50606;-75
2023/05/18 14:37:40;;;;;;;;;;;;;;;21.58;46.25;102004.48;2361733;75;50644;-76
2023/05/18 14:40:42;;;;;;;;;;;;;;;21.60;46.20;102001.95;2329050;75;52537;-76
2023/05/18 14:43:45;;;;;;;;;;;;;;;21.58;46.26;102004.00;2356881;74;51440;-76
2023/05/18 14:46:47;;;;;;;;;;;;;;;21.58;46.27;102005.83;2360505;75;50344;-76
2023/05/18 14:49:48;;;;;;;;;;;;;;;21.59;46.28;102007.02;2356104;75;50270;-75
2023/05/18 14:52:51;;;;;;;;;;;;;;;21.59;46.31;102003.49;2353528;75;50267;-76
2023/05/18 14:55:52;;;;;;;;;;;;;;;21.58;46.34;102002.66;2355386;74;51566;-75
2023/05/18 14:58:54;;;;;;;;;;;;;;;21.57;46.40;101988.00;2353332;75;51360;-75
2023/05/18 15:01:55;;;;;;;;;;;;;;;21.58;46.39;101993.70;2353500;75;51528;-76
2023/05/18 15:04:57;;;;;;;;;;;;;;;21.56;46.39;101997.94;2381765;74;52344;-76
2023/05/18 15:07:59;;;;;;;;;;;;;;;21.56;46.45;101991.72;2355510;75;51477;-75
2023/05/18 15:11:00;;;;;;;;;;;;;;;21.54;46.44;101991.88;2353660;75;51528;-75
2023/05/18 15:14:02;;;;;;;;;;;;;;;21.52;46.50;101990.69;2355831;74;51412;-76
2023/05/18 15:17:04;;;;;;;;;;;;;;;21.53;46.59;101996.94;2357808;74;51518;-75
2023/05/18 15:20:06;;;;;;;;;;;;;;;21.52;46.59;101993.38;2352675;75;50276;-75
2023/05/18 15:23:07;;;;;;;;;;;;;;;21.52;46.57;101992.03;2355964;75;50291;-75
2023/05/18 15:26:09;;;;;;;;;;;;;;;21.52;46.63;101994.72;2355635;74;49970;-75
2023/05/18 15:29:10;;;;;;;;;;;;;;;21.53;46.59;101996.42;2386194;74;51178;-75
2023/05/18 15:32:12;;;;;;;;;;;;;;;21.53;46.61;101991.04;2355764;74;50679;-76
2023/05/18 15:35:18;;;;;;;;;;;;;;;21.52;46.55;101994.72;2353675;75;52433;-75